createdAt,value
2023-05-18T00:01:41.266Z,99631.84
2023-05-18T00:03:47.515Z,99633.81
2023-05-18T00:05:52.934Z,99631.44
2023-05-18T00:08:00.644Z,99628.72
2023-05-18T00:10:06.868Z,99630.91
2023-05-18T00:12:12.801Z,99631.38
2023-05-18T00:14:17.902Z,99624.75
2023-05-18T00:16:23.544Z,99622.31
2023-05-18T00:18:28.893Z,99618.78
2023-05-18T00:20:34.859Z,99621.06
2023-05-18T00:22:43.082Z,99625.50
2023-05-18T00:24:51.467Z,99627.34
2023-05-18T00:26:58.351Z,99625.41
2023-05-18T00:29:03.485Z,99630.00
2023-05-18T00:31:08.767Z,99623.13
2023-05-18T00:33:14.265Z,99623.25
2023-05-18T00:35:19.376Z,99629.78
2023-05-18T00:37:25.558Z,99629.53
2023-05-18T00:39:30.676Z,99625.31
2023-05-18T00:41:38.997Z,99621.16
2023-05-18T00:43:44.186Z,99623.13
2023-05-18T00:45:49.567Z,99627.41
2023-05-18T00:47:55.313Z,99626.38
2023-05-18T00:50:00.605Z,99620.50
2023-05-18T00:52:08.135Z,99626.38
2023-05-18T00:54:13.278Z,99628.34
2023-05-18T00:56:18.790Z,99631.78
2023-05-18T00:58:26.832Z,99627.53
2023-05-18T01:00:32.133Z,99619.88
2023-05-18T01:02:43.218Z,99626.38
2023-05-18T01:04:48.391Z,99624.75
2023-05-18T01:06:56.877Z,99627.25
2023-05-18T01:09:04.398Z,99624.50
2023-05-18T01:11:21.866Z,99631.66
2023-05-18T01:13:38.850Z,99621.06
2023-05-18T01:15:45.203Z,99628.31
2023-05-18T01:18:10.744Z,99621.22
2023-05-18T01:20:25.336Z,99626.41
2023-05-18T01:22:51.997Z,99624.81
2023-05-18T01:25:06.796Z,99624.09
2023-05-18T01:27:19.441Z,99629.34
2023-05-18T01:29:25.726Z,99635.13
2023-05-18T01:31:31.564Z,99631.59
2023-05-18T01:33:36.734Z,99631.63
2023-05-18T01:35:48.591Z,99635.72
2023-05-18T01:37:54.294Z,99633.13
2023-05-18T01:39:59.407Z,99624.75
2023-05-18T01:42:12.394Z,99627.94
2023-05-18T01:44:27.164Z,99631.78
2023-05-18T01:46:42.800Z,99628.16
2023-05-18T01:48:56.895Z,99633.22
2023-05-18T01:51:03.501Z,99630.91
2023-05-18T01:53:16.786Z,99636.00
2023-05-18T01:55:23.762Z,99636.56
2023-05-18T01:57:32.736Z,99635.50
2023-05-18T01:59:41.872Z,99638.50
2023-05-18T02:01:47.736Z,99650.63
2023-05-18T02:03:54.755Z,99639.34
2023-05-18T02:06:00.334Z,99638.22
2023-05-18T02:08:06.173Z,99641.78
2023-05-18T02:10:13.655Z,99637.47
2023-05-18T02:12:19.651Z,99635.19
2023-05-18T02:14:25.154Z,99640.28
2023-05-18T02:16:33.291Z,99626.88
2023-05-18T02:18:39.037Z,99631.66
2023-05-18T02:20:44.881Z,99624.31
2023-05-18T02:22:49.930Z,99635.06
2023-05-18T02:24:55.813Z,99631.16
2023-05-18T02:27:01.595Z,99630.44
2023-05-18T02:29:08.330Z,99633.63
2023-05-18T02:31:15.739Z,99627.22
2023-05-18T02:33:26.724Z,99624.88
2023-05-18T02:35:32.572Z,99626.41
2023-05-18T02:37:40.262Z,99627.06
2023-05-18T02:39:45.942Z,99628.84
2023-05-18T02:41:52.188Z,99625.56
2023-05-18T02:43:57.959Z,99624.53
2023-05-18T02:46:04.757Z,99622.91
2023-05-18T02:48:12.721Z,99626.47
2023-05-18T02:50:20.777Z,99627.06
2023-05-18T02:52:28.338Z,99621.91
2023-05-18T02:54:34.078Z,99622.47
2023-05-18T02:56:41.987Z,99625.00
2023-05-18T02:59:01.506Z,99631.47
2023-05-18T03:01:19.242Z,99628.22
2023-05-18T03:03:28.757Z,99626.00
2023-05-18T03:05:37.073Z,99630.34
2023-05-18T03:07:42.365Z,99633.91
2023-05-18T03:09:47.819Z,99624.97
2023-05-18T03:11:53.897Z,99622.66
2023-05-18T03:13:59.021Z,99616.91
2023-05-18T03:16:04.103Z,99616.84
2023-05-18T03:18:09.769Z,99617.69
2023-05-18T03:20:15.798Z,99616.75
2023-05-18T03:22:23.792Z,99620.78
2023-05-18T03:24:30.786Z,99616.69
2023-05-18T03:26:39.919Z,99621.81
2023-05-18T03:28:45.078Z,99615.91
2023-05-18T03:30:50.647Z,99617.69
2023-05-18T03:32:56.903Z,99625.75
2023-05-18T03:35:04.840Z,99621.69
2023-05-18T03:37:11.057Z,99619.09
2023-05-18T03:39:19.205Z,99619.84
2023-05-18T03:41:24.781Z,99626.38
2023-05-18T03:43:32.777Z,99625.38
2023-05-18T03:45:39.153Z,99622.94
2023-05-18T03:47:45.535Z,99621.16
2023-05-18T03:49:51.584Z,99625.19
2023-05-18T03:51:57.824Z,99627.78
2023-05-18T03:54:03.354Z,99620.38
2023-05-18T03:56:13.892Z,99625.34
2023-05-18T03:58:20.298Z,99627.25
2023-05-18T04:00:25.986Z,99629.00
2023-05-18T04:02:31.312Z,99626.56
2023-05-18T04:04:36.592Z,99627.22
2023-05-18T04:06:42.512Z,99638.69
2023-05-18T04:08:48.504Z,99631.16
2023-05-18T04:10:54.287Z,99631.06
2023-05-18T04:13:02.304Z,99636.88
2023-05-18T04:15:09.377Z,99635.97
2023-05-18T04:17:15.129Z,99633.41
2023-05-18T04:19:21.900Z,99636.63
2023-05-18T04:21:27.332Z,99638.16
2023-05-18T04:23:33.596Z,99644.88
2023-05-18T04:25:39.798Z,99648.16
2023-05-18T04:27:47.803Z,99646.47
2023-05-18T04:29:58.362Z,99640.91
2023-05-18T04:32:03.593Z,99640.25
2023-05-18T04:34:09.225Z,99640.25
2023-05-18T04:36:15.193Z,99641.19
2023-05-18T04:38:23.257Z,99641.97
2023-05-18T04:40:28.434Z,99647.00
2023-05-18T04:42:34.716Z,99643.75
2023-05-18T04:44:40.323Z,99652.34
2023-05-18T04:46:48.502Z,99644.22
2023-05-18T04:48:58.314Z,99650.16
2023-05-18T04:51:36.098Z,99647.13
2023-05-18T04:53:41.208Z,99642.34
2023-05-18T04:55:47.471Z,99651.53
2023-05-18T04:57:54.218Z,99651.69
2023-05-18T04:59:59.295Z,99648.50
2023-05-18T05:02:08.117Z,99652.69
2023-05-18T05:04:13.502Z,99653.84
2023-05-18T05:06:19.818Z,99652.31
2023-05-18T05:08:25.318Z,99648.22
2023-05-18T05:10:31.094Z,99652.44
2023-05-18T05:12:36.582Z,99656.56
2023-05-18T05:14:41.703Z,99654.97
2023-05-18T05:16:46.830Z,99660.81
2023-05-18T05:18:55.344Z,99659.19
2023-05-18T05:21:00.486Z,99657.69
2023-05-18T05:23:06.055Z,99646.31
2023-05-18T05:25:12.444Z,99653.00
2023-05-18T05:27:18.967Z,99650.53
2023-05-18T05:29:26.536Z,99646.66
2023-05-18T05:31:32.272Z,99650.97
2023-05-18T05:33:37.362Z,99647.69
2023-05-18T05:35:45.058Z,99646.97
2023-05-18T05:37:50.997Z,99635.38
2023-05-18T05:39:56.738Z,99642.25
2023-05-18T05:42:01.886Z,99652.34
2023-05-18T05:44:07.656Z,99649.91
2023-05-18T05:46:12.751Z,99653.38
2023-05-18T05:48:18.681Z,99653.50
2023-05-18T05:50:24.355Z,99642.78
2023-05-18T05:52:34.697Z,99652.84
2023-05-18T05:54:41.201Z,99654.50
2023-05-18T05:56:46.704Z,99659.56
2023-05-18T05:58:53.639Z,99652.19
2023-05-18T06:00:59.212Z,99658.09
2023-05-18T06:03:04.337Z,99659.84
2023-05-18T06:05:13.407Z,99661.63
2023-05-18T06:07:18.584Z,99665.94
2023-05-18T06:09:26.521Z,99659.34
2023-05-18T06:11:32.931Z,99656.94
2023-05-18T06:13:38.217Z,99660.34
2023-05-18T06:15:43.359Z,99663.69
2023-05-18T06:17:49.742Z,99659.63
2023-05-18T06:19:55.029Z,99662.16
2023-05-18T06:22:00.249Z,99660.59
2023-05-18T06:24:09.638Z,99665.63
2023-05-18T06:26:36.482Z,99665.72
2023-05-18T06:29:00.445Z,99659.91
2023-05-18T06:31:13.317Z,99662.50
2023-05-18T06:33:30.134Z,99657.50
2023-05-18T06:35:36.491Z,99669.19
2023-05-18T06:37:41.820Z,99669.25
2023-05-18T06:39:47.657Z,99665.97
2023-05-18T06:41:55.668Z,99658.47
2023-05-18T06:44:04.971Z,99666.84
2023-05-18T06:46:32.191Z,99661.03
2023-05-18T06:48:45.716Z,99666.88
2023-05-18T06:50:50.872Z,99661.03
2023-05-18T06:52:56.048Z,99663.56
2023-05-18T06:55:01.435Z,99661.06
2023-05-18T06:57:10.262Z,99666.06
2023-05-18T06:59:16.154Z,99672.72
2023-05-18T07:01:22.164Z,99666.84
2023-05-18T07:03:27.512Z,99672.66
2023-05-18T07:05:33.153Z,99660.94
2023-05-18T07:07:38.883Z,99663.41
2023-05-18T07:09:45.894Z,99664.22
2023-05-18T07:11:51.584Z,99667.47
2023-05-18T07:13:59.529Z,99664.03
2023-05-18T07:16:04.643Z,99668.84
2023-05-18T07:18:10.420Z,99658.63
2023-05-18T07:20:15.674Z,99661.91
2023-05-18T07:22:20.860Z,99659.28
2023-05-18T07:24:25.994Z,99650.63
2023-05-18T07:26:31.936Z,99657.91
2023-05-18T07:28:37.157Z,99649.38
2023-05-18T07:30:44.814Z,99650.03
2023-05-18T07:32:51.787Z,99655.69
2023-05-18T07:34:57.744Z,99638.66
2023-05-18T07:37:03.383Z,99642.78
2023-05-18T07:39:09.183Z,99643.34
2023-05-18T07:41:14.315Z,99640.66
2023-05-18T07:43:19.951Z,99639.38
2023-05-18T07:45:25.104Z,99644.19
2023-05-18T07:47:33.767Z,99642.94
2023-05-18T07:49:39.550Z,99641.00
2023-05-18T07:51:44.861Z,99636.38
2023-05-18T07:53:50.283Z,99640.72
2023-05-18T07:55:55.356Z,99637.09
2023-05-18T07:58:01.422Z,99636.66
2023-05-18T08:00:09.981Z,99634.91
2023-05-18T08:02:20.117Z,99632.28
2023-05-18T08:04:28.026Z,99629.78
2023-05-18T08:06:33.828Z,99633.19
2023-05-18T08:08:38.991Z,99633.81
2023-05-18T08:10:44.269Z,99637.53
2023-05-18T08:12:49.659Z,99629.53
2023-05-18T08:14:54.735Z,99627.16
2023-05-18T08:17:02.594Z,99635.31
2023-05-18T08:19:07.776Z,99620.63
2023-05-18T08:21:15.663Z,99628.09
2023-05-18T08:23:21.148Z,99623.22
2023-05-18T08:25:26.587Z,99615.13
2023-05-18T08:27:31.924Z,99613.66
2023-05-18T08:29:37.074Z,99613.84
2023-05-18T08:31:44.987Z,99602.69
2023-05-18T08:33:51.537Z,99608.59
2023-05-18T08:35:56.816Z,99612.75
2023-05-18T08:38:05.686Z,99608.16
2023-05-18T08:40:14.918Z,99610.44
2023-05-18T08:42:29.560Z,99604.88
2023-05-18T08:44:48.597Z,99610.06
2023-05-18T08:46:54.844Z,99605.22
2023-05-18T08:49:03.595Z,99600.81
2023-05-18T08:51:11.489Z,99608.19
2023-05-18T08:53:21.532Z,99602.28
2023-05-18T08:55:28.313Z,99596.25
2023-05-18T08:57:36.233Z,99606.78
2023-05-18T08:59:45.507Z,99601.47
2023-05-18T09:01:50.652Z,99594.44
2023-05-18T09:03:55.956Z,99593.31
2023-05-18T09:06:03.832Z,99586.75
2023-05-18T09:08:10.499Z,99588.88
2023-05-18T09:10:18.161Z,99589.19
2023-05-18T09:12:25.233Z,99585.72
2023-05-18T09:14:30.303Z,99580.41
2023-05-18T09:16:36.166Z,99578.84
2023-05-18T09:18:41.789Z,99574.34
2023-05-18T09:20:48.276Z,99578.38
2023-05-18T09:22:54.041Z,99571.56
2023-05-18T09:24:59.341Z,99554.50
2023-05-18T09:27:08.065Z,99560.38
2023-05-18T09:29:21.107Z,99550.69
2023-05-18T09:31:27.938Z,99553.97
2023-05-18T09:33:40.745Z,99548.91
2023-05-18T09:35:47.080Z,99552.25
2023-05-18T09:37:53.257Z,99553.31
2023-05-18T09:40:08.181Z,99556.53
2023-05-18T09:42:15.991Z,99553.47
2023-05-18T09:44:21.314Z,99551.66
2023-05-18T09:46:26.625Z,99551.75
2023-05-18T09:48:32.055Z,99557.34
2023-05-18T09:50:37.679Z,99560.72
2023-05-18T09:52:47.861Z,99556.41
2023-05-18T09:55:02.639Z,99555.34
2023-05-18T09:57:11.193Z,99552.72
2023-05-18T09:59:19.707Z,99549.63
2023-05-18T10:01:24.920Z,99537.97
2023-05-18T10:03:34.094Z,99541.41
2023-05-18T10:05:40.003Z,99540.03
2023-05-18T10:07:46.958Z,99541.09
2023-05-18T10:10:08.517Z,99546.34
2023-05-18T10:12:16.373Z,99543.31
2023-05-18T10:14:31.394Z,99550.63
2023-05-18T10:16:37.041Z,99544.50
2023-05-18T10:18:42.966Z,99544.72
2023-05-18T10:20:51.391Z,99546.63
2023-05-18T10:22:59.516Z,99536.72
2023-05-18T10:25:08.200Z,99529.28
2023-05-18T10:27:14.537Z,99525.84
2023-05-18T10:29:23.170Z,99534.13
2023-05-18T10:31:30.848Z,99530.09
2023-05-18T10:33:38.616Z,99534.34
2023-05-18T10:35:44.251Z,99531.59
2023-05-18T10:37:53.316Z,99529.63
2023-05-18T10:40:01.224Z,99532.16
2023-05-18T10:42:08.926Z,99527.97
2023-05-18T10:44:14.115Z,99528.66
2023-05-18T10:46:26.574Z,99526.88
2023-05-18T10:48:32.732Z,99526.31
2023-05-18T10:50:40.565Z,99532.09
2023-05-18T10:52:47.545Z,99524.69
2023-05-18T10:54:52.676Z,99526.47
2023-05-18T10:57:01.130Z,99526.03
2023-05-18T10:59:07.313Z,99524.50
2023-05-18T11:01:14.698Z,99517.94
2023-05-18T11:03:23.655Z,99518.47
2023-05-18T11:05:29.459Z,99521.00
2023-05-18T11:07:35.072Z,99519.16
2023-05-18T11:09:41.367Z,99519.63
2023-05-18T11:11:56.532Z,99520.75
2023-05-18T11:14:04.911Z,99516.13
2023-05-18T11:16:11.632Z,99519.41
2023-05-18T11:18:18.066Z,99520.69
2023-05-18T11:20:28.998Z,99520.72
2023-05-18T11:22:51.958Z,99522.94
2023-05-18T11:24:57.009Z,99519.38
2023-05-18T11:27:04.152Z,99520.06
2023-05-18T11:29:24.527Z,99511.25
2023-05-18T11:31:47.255Z,99514.16
2023-05-18T11:33:52.334Z,99514.53
2023-05-18T11:36:15.166Z,99512.41
2023-05-18T11:38:21.331Z,99513.56
2023-05-18T11:40:49.453Z,99510.59
2023-05-18T11:43:01.782Z,99515.13
2023-05-18T11:45:11.171Z,99506.59
2023-05-18T11:47:16.262Z,99509.22
2023-05-18T11:49:23.897Z,99505.31
2023-05-18T11:51:35.002Z,99509.13
2023-05-18T11:53:40.218Z,99502.81
2023-05-18T11:55:46.052Z,99495.81
2023-05-18T11:57:55.064Z,99504.44
2023-05-18T12:00:01.715Z,99500.38
2023-05-18T12:02:10.746Z,99504.72
2023-05-18T12:04:16.211Z,99499.75
2023-05-18T12:06:21.950Z,99496.03
2023-05-18T12:08:30.536Z,99496.34
2023-05-18T12:10:39.856Z,99492.13
2023-05-18T12:12:45.166Z,99482.94
2023-05-18T12:14:57.593Z,99489.69
2023-05-18T12:17:04.199Z,99491.28
2023-05-18T12:19:11.163Z,99491.66
2023-05-18T12:21:17.208Z,99491.50
2023-05-18T12:23:22.276Z,99484.03
2023-05-18T12:25:30.922Z,99488.88
2023-05-18T12:27:42.045Z,99489.66
2023-05-18T12:29:47.153Z,99480.91
2023-05-18T12:31:52.772Z,99480.16
2023-05-18T12:33:59.181Z,99483.19
2023-05-18T12:36:04.845Z,99475.59
2023-05-18T12:38:09.899Z,99487.28
2023-05-18T12:40:17.907Z,99475.44
2023-05-18T12:42:25.648Z,99470.47
2023-05-18T12:44:30.902Z,99468.47
2023-05-18T12:46:36.403Z,99467.38
2023-05-18T12:48:48.878Z,99469.00
2023-05-18T12:50:55.727Z,99474.75
2023-05-18T12:53:01.995Z,99467.78
2023-05-18T12:55:11.326Z,99465.78
2023-05-18T12:57:16.591Z,99457.94
2023-05-18T12:59:24.256Z,99459.41
2023-05-18T13:01:30.810Z,99446.16
2023-05-18T13:03:37.441Z,99455.34
2023-05-18T13:05:45.059Z,99440.38
2023-05-18T13:07:50.397Z,99436.22
2023-05-18T13:09:56.929Z,99442.00
2023-05-18T13:12:07.581Z,99447.41
2023-05-18T13:14:13.193Z,99436.38
2023-05-18T13:16:24.292Z,99441.59
2023-05-18T13:18:30.386Z,99432.06
2023-05-18T13:20:38.269Z,99427.94
2023-05-18T13:22:43.363Z,99427.91
2023-05-18T13:24:48.495Z,99426.53
2023-05-18T13:26:53.589Z,99433.56
2023-05-18T13:29:00.624Z,99434.00
2023-05-18T13:31:05.833Z,99427.06
2023-05-18T13:33:14.042Z,99423.31
2023-05-18T13:35:19.536Z,99430.75
2023-05-18T13:37:24.595Z,99414.31
2023-05-18T13:39:29.691Z,99427.66
2023-05-18T13:41:36.548Z,99427.88
2023-05-18T13:43:41.727Z,99422.31
2023-05-18T13:45:47.172Z,99416.22
2023-05-18T13:47:53.754Z,99418.09
2023-05-18T13:50:01.445Z,99417.59
2023-05-18T13:52:07.247Z,99419.47
2023-05-18T13:54:12.386Z,99417.97
2023-05-18T13:56:17.452Z,99417.50
2023-05-18T13:58:23.926Z,99415.03
2023-05-18T14:00:29.217Z,99421.72
2023-05-18T14:02:34.472Z,99409.84
2023-05-18T14:04:39.623Z,99412.00
2023-05-18T14:06:47.554Z,99409.97
2023-05-18T14:08:52.656Z,99404.63
2023-05-18T14:10:57.692Z,99413.97
2023-05-18T14:13:03.266Z,99402.88
2023-05-18T14:15:10.077Z,99401.34
2023-05-18T14:17:15.599Z,99405.72
2023-05-18T14:19:21.152Z,99398.63
2023-05-18T14:21:26.283Z,99414.81
2023-05-18T14:23:34.196Z,99406.38
2023-05-18T14:25:39.286Z,99403.69
2023-05-18T14:27:44.383Z,99404.50
2023-05-18T14:29:49.470Z,99409.28
2023-05-18T14:31:54.683Z,99400.19
2023-05-18T14:34:00.058Z,99402.81
2023-05-18T14:36:05.245Z,99395.91
2023-05-18T14:38:10.355Z,99394.19
2023-05-18T14:40:18.548Z,99391.97
2023-05-18T14:42:23.594Z,99391.63
2023-05-18T14:44:29.166Z,99385.91
2023-05-18T14:46:34.403Z,99388.16
2023-05-18T14:48:39.493Z,99389.53
2023-05-18T14:50:44.528Z,99388.59
2023-05-18T14:52:49.872Z,99386.91
2023-05-18T14:54:55.941Z,99392.63
2023-05-18T14:57:03.608Z,99397.34
2023-05-18T14:59:08.754Z,99395.84
2023-05-18T15:01:13.832Z,99395.25
2023-05-18T15:03:18.949Z,99382.97
2023-05-18T15:05:24.289Z,99383.69
2023-05-18T15:07:29.583Z,99388.75
2023-05-18T15:09:34.770Z,99392.28
2023-05-18T15:11:39.805Z,99389.00
2023-05-18T15:13:48.037Z,99381.66
2023-05-18T15:15:53.794Z,99386.53
2023-05-18T15:17:59.003Z,99383.63
2023-05-18T15:20:04.549Z,99375.03
2023-05-18T15:22:09.863Z,99388.97
2023-05-18T15:24:15.163Z,99387.50
2023-05-18T15:26:21.464Z,99383.75
2023-05-18T15:28:26.529Z,99380.28
2023-05-18T15:30:34.475Z,99378.06
2023-05-18T15:32:39.693Z,99381.63
2023-05-18T15:34:44.876Z,99373.75
2023-05-18T15:36:50.206Z,99374.41
2023-05-18T15:38:55.277Z,99371.28
2023-05-18T15:41:00.664Z,99374.41
2023-05-18T15:43:05.722Z,99370.53
2023-05-18T15:45:12.421Z,99368.41
2023-05-18T15:47:20.598Z,99369.84
2023-05-18T15:49:25.684Z,99360.72
2023-05-18T15:51:31.149Z,99355.56
2023-05-18T15:53:36.245Z,99361.59
2023-05-18T15:55:41.556Z,99358.09
2023-05-18T15:57:46.695Z,99369.38
2023-05-18T15:59:51.856Z,99354.41
2023-05-18T16:01:57.434Z,99352.59
2023-05-18T16:04:05.803Z,99350.84
2023-05-18T16:06:11.764Z,99343.22
2023-05-18T16:08:17.225Z,99362.59
2023-05-18T16:10:23.591Z,99347.53
2023-05-18T16:12:28.684Z,99355.59
2023-05-18T16:14:33.772Z,99359.59
2023-05-18T16:16:39.130Z,99364.22
2023-05-18T16:18:44.299Z,99366.03
2023-05-18T16:20:51.969Z,99366.72
2023-05-18T16:22:57.100Z,99366.19
2023-05-18T16:25:02.324Z,99363.63
2023-05-18T16:27:08.000Z,99372.16
2023-05-18T16:29:13.090Z,99377.38
2023-05-18T16:31:18.168Z,99375.59
2023-05-18T16:33:25.291Z,99367.69
2023-05-18T16:35:32.017Z,99360.56
2023-05-18T16:37:39.775Z,99369.69
2023-05-18T16:39:44.849Z,99371.16
2023-05-18T16:41:49.925Z,99367.91
2023-05-18T16:43:55.867Z,99367.59
2023-05-18T16:46:01.098Z,99371.16
2023-05-18T16:48:06.815Z,99373.13
2023-05-18T16:50:13.348Z,99367.38
2023-05-18T16:52:18.613Z,99373.19
2023-05-18T16:54:26.261Z,99373.38
2023-05-18T16:56:32.115Z,99371.81
2023-05-18T16:58:37.194Z,99366.72
2023-05-18T17:00:42.246Z,99378.19
2023-05-18T17:02:47.933Z,99375.03
2023-05-18T17:04:53.319Z,99382.03
2023-05-18T17:06:58.909Z,99376.63
2023-05-18T17:09:06.279Z,99384.78
2023-05-18T17:11:14.545Z,99387.34
2023-05-18T17:13:19.994Z,99392.06
2023-05-18T17:15:25.254Z,99398.28
2023-05-18T17:17:30.523Z,99397.28
2023-05-18T17:19:36.532Z,99403.53
2023-05-18T17:21:42.653Z,99408.00
2023-05-18T17:23:47.919Z,99398.56
2023-05-18T17:26:00.933Z,99395.22
2023-05-18T17:28:16.508Z,99401.44
2023-05-18T17:30:21.572Z,99402.94
2023-05-18T17:32:27.085Z,99404.22
2023-05-18T17:34:32.553Z,99405.34
2023-05-18T17:36:37.639Z,99408.84
2023-05-18T17:38:42.971Z,99408.47
2023-05-18T17:40:48.132Z,99410.50
2023-05-18T17:42:53.387Z,99406.59
2023-05-18T17:45:01.095Z,99403.31
2023-05-18T17:47:06.556Z,99407.28
2023-05-18T17:49:12.273Z,99417.66
2023-05-18T17:51:17.387Z,99418.78
2023-05-18T17:53:22.710Z,99421.53
2023-05-18T17:55:27.847Z,99424.91
2023-05-18T17:57:33.071Z,99423.06
2023-05-18T17:59:38.240Z,99424.59
2023-05-18T18:01:45.914Z,99434.72
2023-05-18T18:03:51.239Z,99429.59
2023-05-18T18:05:56.748Z,99433.88
2023-05-18T18:08:01.814Z,99434.16
2023-05-18T18:10:08.153Z,99439.41
2023-05-18T18:12:13.314Z,99430.44
2023-05-18T18:14:18.963Z,99437.97
2023-05-18T18:16:24.588Z,99437.03
2023-05-18T18:18:32.785Z,99440.31
2023-05-18T18:20:38.407Z,99441.53
2023-05-18T18:22:43.453Z,99442.25
2023-05-18T18:24:48.763Z,99443.09
2023-05-18T18:26:55.804Z,99447.03
2023-05-18T18:29:01.143Z,99447.78
2023-05-18T18:31:07.388Z,99453.59
2023-05-18T18:33:12.596Z,99451.19
2023-05-18T18:35:20.968Z,99450.84
2023-05-18T18:37:26.070Z,99458.63
2023-05-18T18:39:31.551Z,99457.72
2023-05-18T18:41:36.806Z,99459.84
2023-05-18T18:43:41.872Z,99456.06
2023-05-18T18:45:47.258Z,99456.94
2023-05-18T18:47:52.353Z,99463.66
2023-05-18T18:49:57.865Z,99468.41
2023-05-18T18:52:06.661Z,99469.03
2023-05-18T18:54:11.802Z,99458.72
2023-05-18T18:56:16.884Z,99466.06
2023-05-18T18:58:24.323Z,99465.31
2023-05-18T19:00:29.858Z,99466.09
2023-05-18T19:02:34.933Z,99468.88
2023-05-18T19:04:40.034Z,99465.59
2023-05-18T19:06:46.680Z,99464.19
2023-05-18T19:08:54.441Z,99475.72
2023-05-18T19:11:00.029Z,99480.41
2023-05-18T19:13:06.133Z,99485.78
2023-05-18T19:15:13.666Z,99489.38
2023-05-18T19:17:18.964Z,99489.88
2023-05-18T19:19:24.171Z,99491.72
2023-05-18T19:21:29.536Z,99489.88
2023-05-18T19:23:34.605Z,99487.44
2023-05-18T19:25:42.610Z,99493.38
2023-05-18T19:27:48.052Z,99490.19
2023-05-18T19:29:53.374Z,99498.81
2023-05-18T19:31:59.759Z,99492.84
2023-05-18T19:34:05.091Z,99499.59
2023-05-18T19:36:11.381Z,99502.09
2023-05-18T19:40:58.579Z,99505.59
2023-05-18T19:43:03.848Z,99502.19
2023-05-18T19:45:10.256Z,99499.78
2023-05-18T19:47:15.316Z,99505.78
2023-05-18T19:49:21.381Z,99504.91
2023-05-18T19:51:26.507Z,99516.03
2023-05-18T19:53:31.579Z,99512.94
2023-05-18T19:55:36.688Z,99512.94
2023-05-18T19:57:44.316Z,99511.25
2023-05-18T19:59:49.391Z,99507.13
2023-05-18T20:01:56.554Z,99510.34
2023-05-18T20:04:01.822Z,99511.22
2023-05-18T20:06:07.672Z,99509.66
2023-05-18T20:08:13.216Z,99508.91
2023-05-18T20:10:18.862Z,99513.19
2023-05-18T20:12:23.966Z,99504.97
2023-05-18T20:14:33.473Z,99513.63
2023-05-18T20:16:39.892Z,99512.78
2023-05-18T20:18:46.004Z,99513.72
2023-05-18T20:20:51.186Z,99510.34
2023-05-18T20:22:56.282Z,99515.41
2023-05-18T20:25:01.478Z,99507.13
2023-05-18T20:27:06.821Z,99508.06
2023-05-18T20:29:13.025Z,99505.47
2023-05-18T20:31:20.826Z,99512.91
2023-05-18T20:33:26.681Z,99522.19
2023-05-18T20:35:32.181Z,99512.22
2023-05-18T20:37:37.810Z,99513.03
2023-05-18T20:39:50.686Z,99510.38
2023-05-18T20:41:57.806Z,99505.31
2023-05-18T20:44:03.181Z,99507.84
2023-05-18T20:46:09.926Z,99508.69
2023-05-18T20:48:24.885Z,99512.78
2023-05-18T20:50:30.428Z,99508.50
2023-05-18T20:52:36.341Z,99511.94
2023-05-18T20:54:41.724Z,99516.19
2023-05-18T20:56:47.586Z,99522.03
2023-05-18T20:58:52.986Z,99526.31
2023-05-18T21:00:58.125Z,99523.81
2023-05-18T21:03:04.440Z,99527.25
2023-05-18T21:05:13.054Z,99526.47
2023-05-18T21:07:19.024Z,99526.53
2023-05-18T21:09:24.256Z,99529.94
2023-05-18T21:11:31.130Z,99525.13
2023-05-18T21:13:37.269Z,99529.41
2023-05-18T21:15:42.483Z,99532.88
2023-05-18T21:17:47.836Z,99531.25
2023-05-18T21:19:53.816Z,99529.50
2023-05-18T21:22:01.583Z,99529.59
2023-05-18T21:24:07.009Z,99531.38
2023-05-18T21:26:12.423Z,99536.41
2023-05-18T21:28:19.126Z,99523.06
2023-05-18T21:30:24.289Z,99526.50
2023-05-18T21:32:29.558Z,99530.00
2023-05-18T21:34:34.764Z,99530.81
2023-05-18T21:36:40.056Z,99528.38
2023-05-18T21:38:47.774Z,99527.59
2023-05-18T21:40:53.412Z,99526.84
2023-05-18T21:42:58.507Z,99522.72
2023-05-18T21:45:03.864Z,99526.16
2023-05-18T21:47:09.234Z,99526.22
2023-05-18T21:49:14.585Z,99525.44
2023-05-18T21:51:20.597Z,99527.97
2023-05-18T21:53:25.811Z,99527.19
2023-05-18T21:55:33.933Z,99528.91
2023-05-18T21:57:39.059Z,99528.06
2023-05-18T21:59:44.122Z,99528.91
2023-05-18T22:01:49.535Z,99528.13
2023-05-18T22:03:54.883Z,99528.97
2023-05-18T22:06:00.549Z,99531.47
2023-05-18T22:08:05.792Z,99522.25
2023-05-18T22:10:11.411Z,99524.00
2023-05-18T22:12:19.328Z,99519.03
2023-05-18T22:14:24.429Z,99527.47
2023-05-18T22:16:31.863Z,99524.06
2023-05-18T22:18:37.106Z,99525.78
2023-05-18T22:20:42.256Z,99525.00
2023-05-18T22:22:47.581Z,99529.25
2023-05-18T22:24:52.728Z,99525.91
2023-05-18T22:26:57.825Z,99524.22
2023-05-18T22:29:05.568Z,99519.19
2023-05-18T22:31:10.668Z,99519.22
2023-05-18T22:33:17.049Z,99512.56
2023-05-18T22:35:22.162Z,99521.88
2023-05-18T22:37:27.241Z,99517.72
2023-05-18T22:39:32.423Z,99507.72
2023-05-18T22:41:37.562Z,99509.44
2023-05-18T22:43:43.043Z,99512.00
2023-05-18T22:45:51.254Z,99507.81
2023-05-18T22:47:57.757Z,99509.50
2023-05-18T22:50:02.877Z,99517.09
2023-05-18T22:52:10.488Z,99514.53
2023-05-18T22:54:15.858Z,99513.78
2023-05-18T22:56:21.980Z,99513.81
2023-05-18T22:58:27.519Z,99517.13
2023-05-18T23:00:32.732Z,99517.94
2023-05-18T23:02:42.618Z,99519.69
2023-05-18T23:04:47.776Z,99509.63
2023-05-18T23:06:54.290Z,99519.59
2023-05-18T23:09:00.784Z,99509.56
2023-05-18T23:11:06.163Z,99511.25
2023-05-18T23:13:11.762Z,99518.00
2023-05-18T23:15:16.887Z,99512.94
2023-05-18T23:17:23.413Z,99509.63
2023-05-18T23:19:31.862Z,99510.47
2023-05-18T23:21:37.207Z,99510.50
2023-05-18T23:23:42.938Z,99506.34
2023-05-18T23:25:48.070Z,99501.34
2023-05-18T23:27:53.126Z,99496.34
2023-05-18T23:29:58.203Z,99498.88
2023-05-18T23:32:03.583Z,99499.81
2023-05-18T23:34:10.498Z,99503.16
2023-05-18T23:36:22.307Z,99496.50
2023-05-18T23:38:35.061Z,99499.91
2023-05-18T23:40:40.672Z,99501.66
2023-05-18T23:42:46.947Z,99503.38
2023-05-18T23:44:53.725Z,99499.19
2023-05-18T23:47:00.111Z,99506.75
2023-05-18T23:49:07.285Z,99501.75
2023-05-18T23:51:17.870Z,99498.41
2023-05-18T23:53:26.339Z,99496.81
2023-05-18T23:55:32.172Z,99501.03
2023-05-18T23:57:38.167Z,99496.13
2023-05-18T23:59:45.138Z,99496.91
